Time;durP1;ratioP1;P1;durP2;ratioP2;P2;SDS_P1;SDS_P2;PMS_P1;PMS_P2;Temp;Humidity;BMP_temperature;BMP_pressure;BME280_temperature;BME280_humidity;BME280_pressure;Samples;Min_cycle;Max_cycle;Signal;HPM_P1;HPM_P2
2024/03/27 00:02:20;;;;;;;0.30;0.20;;;;;;;10.40;89.61;97393.78;5037153;28;21024;-46
2024/03/27 00:04:46;;;;;;;0.30;0.20;;;;;;;10.34;90.39;97381.81;5036719;28;20227;-46
2024/03/27 00:07:11;;;;;;;0.30;0.20;;;;;;;10.29;90.85;97389.28;5036957;28;20258;-46
2024/03/27 00:09:37;;;;;;;0.30;0.20;;;;;;;10.33;90.54;97389.91;5036499;28;20319;-46
2024/03/27 00:12:03;;;;;;;0.30;0.20;;;;;;;10.14;91.62;97395.66;5036154;28;20268;-46
2024/03/27 00:14:28;;;;;;;0.30;0.20;;;;;;;10.10;92.18;97397.69;5036526;28;20303;-49
2024/03/27 00:16:54;;;;;;;0.30;0.20;;;;;;;10.07;92.30;97402.41;5028034;28;20487;-49
2024/03/27 00:19:21;;;;;;;0.30;0.20;;;;;;;10.12;92.46;97402.03;5031237;28;20270;-49
2024/03/27 00:21:46;;;;;;;0.30;0.20;;;;;;;9.90;92.80;97405.44;5036382;28;20243;-49
2024/03/27 00:24:12;;;;;;;2.97;2.83;;;;;;;9.93;93.12;97392.78;5035936;28;20520;-49
2024/03/27 00:26:38;;;;;;;0.30;0.20;;;;;;;9.89;93.25;97390.47;5036349;28;20223;-48
2024/03/27 00:29:04;;;;;;;0.30;0.20;;;;;;;9.77;93.10;97385.09;5035904;28;20494;-49
2024/03/27 00:31:29;;;;;;;0.30;0.20;;;;;;;9.77;92.65;97379.78;5036301;28;20689;-49
2024/03/27 00:33:55;;;;;;;0.30;0.20;;;;;;;9.89;91.66;97377.22;5036073;28;20255;-49
2024/03/27 00:36:20;;;;;;;0.30;0.20;;;;;;;9.77;91.79;97379.78;5036242;28;20251;-49
2024/03/27 00:38:46;;;;;;;0.30;0.20;;;;;;;9.68;92.41;97384.91;5035978;28;20212;-48
2024/03/27 00:41:11;;;;;;;0.30;0.20;;;;;;;9.53;92.50;97378.03;5035873;28;20356;-49
2024/03/27 00:43:37;;;;;;;0.30;0.20;;;;;;;9.64;92.05;97372.81;5035788;28;20662;-49
2024/03/27 00:46:04;;;;;;;0.30;0.20;;;;;;;9.56;91.98;97373.34;5035134;28;20220;-49
2024/03/27 00:48:30;;;;;;;0.30;0.20;;;;;;;9.56;92.01;97372.50;5030627;28;20232;-48
2024/03/27 00:50:56;;;;;;;0.30;0.20;;;;;;;9.39;92.36;97386.97;5024100;28;20480;-49
2024/03/27 00:53:22;;;;;;;0.30;0.20;;;;;;;9.42;92.55;97389.41;5030706;28;20990;-48
2024/03/27 00:56:00;;;;;;;0.40;0.40;;;;;;;9.22;92.01;97376.72;5024375;28;20717;-49
2024/03/27 00:58:27;;;;;;;0.30;0.20;;;;;;;9.01;91.80;97379.88;5032469;28;20265;-49
2024/03/27 01:00:52;;;;;;;0.30;0.20;;;;;;;8.91;92.45;97373.56;5034697;28;20482;-48
2024/03/27 01:03:18;;;;;;;0.30;0.20;;;;;;;8.85;92.56;97361.56;5035231;28;20510;-48
2024/03/27 01:05:44;;;;;;;0.30;0.20;;;;;;;8.77;92.90;97360.38;5035573;28;20262;-49
2024/03/27 01:08:10;;;;;;;0.30;0.20;;;;;;;8.79;92.63;97354.03;5034927;28;20728;-49
2024/03/27 01:10:37;;;;;;;0.30;0.20;;;;;;;8.49;92.57;97343.72;5035437;28;20832;-48
2024/03/27 01:13:03;;;;;;;0.30;0.20;;;;;;;8.44;92.58;97343.19;5035265;28;20483;-49
2024/03/27 01:15:29;;;;;;;0.30;0.20;;;;;;;8.55;92.25;97332.72;5035406;28;20481;-49
2024/03/27 01:17:55;;;;;;;0.30;0.20;;;;;;;8.50;92.74;97334.84;5034881;28;20951;-48
2024/03/27 01:20:22;;;;;;;0.30;0.20;;;;;;;8.50;91.49;97334.84;5035406;28;20591;-51
2024/03/27 01:22:48;;;;;;;0.30;0.20;;;;;;;8.44;91.34;97340.53;5035319;28;20224;-48
2024/03/27 01:25:15;;;;;;;0.30;0.20;;;;;;;8.49;91.76;97343.72;5035392;28;20459;-49
2024/03/27 01:27:40;;;;;;;0.30;0.20;;;;;;;8.42;92.05;97345.09;5035018;28;20828;-48
2024/03/27 01:30:07;;;;;;;0.30;0.20;;;;;;;8.14;91.32;97345.22;5035196;28;20553;-51
2024/03/27 01:32:33;;;;;;;0.30;0.20;;;;;;;7.98;91.29;97343.59;5035023;28;20236;-51
2024/03/27 01:34:59;;;;;;;0.30;0.20;;;;;;;7.99;91.52;97337.34;5035211;28;20478;-49
2024/03/27 01:37:24;;;;;;;0.30;0.20;;;;;;;7.93;92.08;97342.16;5034969;28;20458;-52
2024/03/27 01:39:50;;;;;;;0.30;0.20;;;;;;;8.04;91.86;97337.03;5035112;28;20269;-49
2024/03/27 01:42:15;;;;;;;0.30;0.20;;;;;;;7.69;92.63;97334.06;5034987;28;20244;-49
2024/03/27 01:44:41;;;;;;;0.30;0.20;;;;;;;7.73;92.84;97327.63;5034720;28;20662;-49
2024/03/27 01:47:08;;;;;;;0.30;0.20;;;;;;;7.85;92.52;97325.97;5027469;28;20216;-49
2024/03/27 01:49:34;;;;;;;0.30;0.20;;;;;;;7.76;93.06;97330.06;5034572;28;20240;-50
2024/03/27 01:52:00;;;;;;;0.30;0.20;;;;;;;7.70;92.80;97333.97;5017577;28;20999;-50
2024/03/27 01:54:26;;;;;;;0.30;0.20;;;;;;;7.56;92.68;97312.84;5034391;28;20528;-49
2024/03/27 01:56:52;;;;;;;0.30;0.20;;;;;;;7.54;92.84;97320.03;5018733;28;20220;-50
2024/03/27 01:59:19;;;;;;;0.30;0.20;;;;;;;7.54;93.82;97316.50;5034684;28;20459;-49
2024/03/27 02:01:46;;;;;;;0.30;0.20;;;;;;;7.55;94.00;97326.16;5034492;28;20486;-50
2024/03/27 02:04:12;;;;;;;0.30;0.20;;;;;;;7.65;93.83;97309.59;5034637;28;20463;-50
2024/03/27 02:06:37;;;;;;;0.30;0.20;;;;;;;7.56;93.86;97309.38;5034386;28;20517;-50
2024/03/27 02:09:03;;;;;;;0.30;0.20;;;;;;;7.50;93.90;97322.94;5034383;28;20274;-49
2024/03/27 02:11:29;;;;;;;0.30;0.20;;;;;;;7.38;93.92;97304.28;5033994;28;20246;-51
2024/03/27 02:13:55;;;;;;;0.30;0.20;;;;;;;7.30;93.56;97305.75;5034709;28;20294;-49
2024/03/27 02:16:21;;;;;;;0.30;0.20;;;;;;;7.35;93.72;97287.78;5030964;28;20466;-49
2024/03/27 02:18:47;;;;;;;0.30;0.20;;;;;;;7.29;93.81;97285.56;5025472;28;20220;-49
2024/03/27 02:21:13;;;;;;;0.30;0.20;;;;;;;7.27;94.40;97285.66;5034383;28;20501;-49
2024/03/27 02:23:58;;;;;;;0.30;0.20;;;;;;;7.20;93.41;97297.53;5034516;28;20216;-49
2024/03/27 02:26:34;;;;;;;0.30;0.20;;;;;;;7.07;93.75;97283.41;5034536;28;20458;-49
2024/03/27 02:29:00;;;;;;;0.30;0.20;;;;;;;7.04;93.90;97273.03;5034291;28;20495;-49
2024/03/27 02:31:25;;;;;;;0.30;0.20;;;;;;;7.10;94.36;97272.66;5034559;28;20483;-49
2024/03/27 02:33:51;;;;;;;0.30;0.20;;;;;;;7.08;94.50;97269.25;5034563;28;20224;-48
2024/03/27 02:36:16;;;;;;;0.30;0.20;;;;;;;7.12;94.14;97270.75;5034603;28;20259;-49
2024/03/27 02:38:42;;;;;;;0.30;0.20;;;;;;;7.13;94.06;97275.97;5034654;28;20221;-48
2024/03/27 02:41:07;;;;;;;0.30;0.20;;;;;;;7.20;93.81;97276.41;5034501;28;20248;-49
2024/03/27 02:43:33;;;;;;;0.30;0.20;;;;;;;7.11;93.95;97283.09;5033946;28;20642;-49
2024/03/27 02:45:58;;;;;;;0.30;0.20;;;;;;;6.97;93.81;97274.38;5034068;28;20224;-49
2024/03/27 02:48:24;;;;;;;0.30;0.20;;;;;;;6.68;94.00;97279.66;5027995;28;20772;-48
2024/03/27 02:50:49;;;;;;;0.30;0.20;;;;;;;6.77;94.50;97281.75;5023733;28;20229;-49
2024/03/27 02:53:15;;;;;;;0.30;0.20;;;;;;;6.77;95.02;97280.91;5028769;28;20213;-49
2024/03/27 02:55:40;;;;;;;0.30;0.20;;;;;;;6.76;94.79;97279.19;5027252;28;20303;-49
2024/03/27 02:58:06;;;;;;;0.30;0.20;;;;;;;6.74;94.23;97273.16;5036263;28;20216;-48
2024/03/27 03:00:31;;;;;;;0.30;0.20;;;;;;;6.72;95.20;97278.56;5040439;28;20615;-48
2024/03/27 03:02:57;;;;;;;0.30;0.20;;;;;;;6.52;94.76;97286.81;5035868;28;20628;-48
2024/03/27 03:05:22;;;;;;;0.30;0.20;;;;;;;6.64;95.37;97287.88;5035964;28;20708;-49
2024/03/27 03:07:48;;;;;;;0.30;0.20;;;;;;;6.62;95.61;97287.97;5018916;28;20582;-49
2024/03/27 03:10:13;;;;;;;0.30;0.20;;;;;;;6.38;94.38;97286.81;5035246;28;20231;-49
2024/03/27 03:12:39;;;;;;;0.30;0.20;;;;;;;6.36;95.09;97284.25;5036030;28;20240;-48
2024/03/27 03:15:05;;;;;;;0.30;0.20;;;;;;;6.41;95.46;97282.19;5035608;28;20234;-49
2024/03/27 03:17:31;;;;;;;0.30;0.20;;;;;;;6.56;95.83;97282.19;5035201;28;20232;-49
2024/03/27 03:19:56;;;;;;;0.30;0.10;;;;;;;6.43;95.38;97268.91;5023225;28;20465;-49
2024/03/27 03:22:22;;;;;;;0.30;0.10;;;;;;;6.43;96.34;97275.03;5020535;28;20317;-49
2024/03/27 03:24:49;;;;;;;0.30;0.20;;;;;;;6.45;96.86;97272.31;5038519;28;20558;-48
2024/03/27 03:27:15;;;;;;;0.30;0.20;;;;;;;6.57;97.24;97262.78;5038043;28;20208;-49
2024/03/27 03:29:41;;;;;;;0.30;0.20;;;;;;;6.69;96.94;97254.13;5037648;28;20483;-48
2024/03/27 03:32:07;;;;;;;0.30;0.20;;;;;;;6.68;97.08;97241.88;5037324;28;20486;-49
2024/03/27 03:34:32;;;;;;;0.30;0.20;;;;;;;6.77;96.26;97236.03;5037261;28;20220;-48
2024/03/27 03:36:58;;;;;;;0.30;0.20;;;;;;;6.77;96.07;97225.47;5037686;28;20274;-48
2024/03/27 03:39:23;;;;;;;0.30;0.17;;;;;;;6.71;95.97;97215.28;5037531;28;20262;-50
2024/03/27 03:41:48;;;;;;;0.30;0.13;;;;;;;6.48;96.83;97214.09;5037083;28;20294;-49
2024/03/27 03:44:14;;;;;;;0.30;0.20;;;;;;;6.66;96.43;97223.50;5037322;28;20220;-48
2024/03/27 03:46:39;;;;;;;0.30;0.20;;;;;;;6.75;97.43;97219.44;5031206;28;20229;-48
2024/03/27 03:49:05;;;;;;;0.30;0.20;;;;;;;6.77;95.85;97221.03;5035663;28;20286;-48
2024/03/27 03:51:31;;;;;;;0.30;0.10;;;;;;;6.71;96.13;97210.00;5020515;28;20370;-48
2024/03/27 03:53:56;;;;;;;0.30;0.20;;;;;;;6.49;96.28;97199.94;5010643;28;20227;-49
2024/03/27 03:56:22;;;;;;;0.30;0.20;;;;;;;6.60;95.98;97197.50;5021340;28;20228;-49
2024/03/27 03:58:47;;;;;;;0.30;0.20;;;;;;;6.61;96.29;97193.06;5023388;28;20259;-48
2024/03/27 04:01:13;;;;;;;0.30;0.20;;;;;;;6.62;96.09;97189.47;5036829;28;20715;-48
2024/03/27 04:03:38;;;;;;;0.30;0.10;;;;;;;6.54;95.94;97176.75;5036952;28;20226;-48
2024/03/27 04:06:04;;;;;;;0.30;0.20;;;;;;;6.46;95.82;97187.78;5036898;28;20212;-49
2024/03/27 04:08:30;;;;;;;0.30;0.20;;;;;;;6.37;95.69;97198.06;5036487;28;20232;-48
2024/03/27 04:10:55;;;;;;;0.30;0.20;;;;;;;6.24;96.31;97206.72;5036909;28;20544;-48
2024/03/27 04:13:21;;;;;;;0.30;0.20;;;;;;;6.41;95.80;97218.03;5036774;28;20274;-48
2024/03/27 04:15:47;;;;;;;0.30;0.20;;;;;;;6.14;95.47;97221.41;5037126;28;20618;-49
2024/03/27 04:18:12;;;;;;;0.30;0.20;;;;;;;6.15;96.35;97236.28;5024754;28;20266;-48
2024/03/27 04:20:41;;;;;;;0.30;0.17;;;;;;;6.36;95.93;97235.94;5037924;28;20462;-49
2024/03/27 04:23:07;;;;;;;0.33;0.17;;;;;;;6.14;95.90;97231.94;5037842;28;20581;-48
2024/03/27 04:25:33;;;;;;;0.30;0.20;;;;;;;6.15;96.31;97228.38;5037909;28;20459;-49
2024/03/27 04:27:58;;;;;;;0.30;0.20;;;;;;;6.26;96.98;97221.59;5037275;28;20224;-49
2024/03/27 04:30:24;;;;;;;0.43;0.43;;;;;;;6.13;98.08;97214.44;5036588;28;20682;-49
2024/03/27 04:32:49;;;;;;;0.30;0.20;;;;;;;6.12;97.20;97218.00;5036415;28;20244;-49
2024/03/27 04:35:15;;;;;;;0.30;0.20;;;;;;;6.18;97.85;97222.94;5033602;28;20216;-48
2024/03/27 04:37:41;;;;;;;0.30;0.20;;;;;;;6.53;97.77;97233.94;5010707;28;20217;-48
2024/03/27 04:40:11;;;;;;;0.30;0.10;;;;;;;6.80;97.55;97238.47;5022700;28;20223;-49
2024/03/27 04:42:40;;;;;;;0.30;0.20;;;;;;;6.94;96.29;97258.72;5035960;28;20232;-50
2024/03/27 04:45:07;;;;;;;0.30;0.20;;;;;;;7.13;96.67;97269.84;5035855;28;20528;-49
2024/03/27 04:47:34;;;;;;;0.30;0.20;;;;;;;7.07;96.50;97283.41;5029821;28;20459;-49
2024/03/27 04:50:00;;;;;;;0.30;0.17;;;;;;;6.91;96.86;97299.38;5031919;28;20494;-49
2024/03/27 04:52:25;;;;;;;0.30;0.20;;;;;;;6.90;97.95;97302.09;5007189;28;20860;-49
2024/03/27 04:54:51;;;;;;;0.30;0.17;;;;;;;7.07;98.33;97297.47;5032103;28;20220;-49
2024/03/27 04:57:16;;;;;;;0.30;0.20;;;;;;;7.36;96.66;97290.34;5023302;28;20223;-48
2024/03/27 04:59:42;;;;;;;0.30;0.20;;;;;;;7.19;96.97;97287.94;5035674;28;20303;-49
2024/03/27 05:02:08;;;;;;;0.30;0.10;;;;;;;7.46;97.60;97287.97;5035671;28;20251;-50
2024/03/27 05:04:33;;;;;;;0.30;0.20;;;;;;;7.62;96.72;97290.44;5035446;28;20262;-50
2024/03/27 05:06:59;;;;;;;0.30;0.17;;;;;;;7.50;96.54;97291.25;5035449;28;20223;-50
2024/03/27 05:09:25;;;;;;;0.30;0.20;;;;;;;7.33;97.70;97287.88;5034946;28;20240;-49
2024/03/27 05:11:51;;;;;;;0.30;0.20;;;;;;;7.26;98.47;97275.16;5054644;22;20726;-49
2024/03/27 05:14:17;;;;;;;0.30;0.20;;;;;;;7.27;98.46;97271.59;5054050;28;20216;-49
2024/03/27 05:16:43;;;;;;;0.60;0.60;;;;;;;7.26;98.30;97270.72;5047532;28;20468;-49
2024/03/27 05:19:09;;;;;;;0.30;0.20;;;;;;;7.27;98.01;97275.09;5047844;28;20447;-49
2024/03/27 05:21:35;;;;;;;0.30;0.20;;;;;;;7.23;97.97;97255.06;5019393;28;20484;-50
2024/03/27 05:24:01;;;;;;;0.30;0.20;;;;;;;7.27;98.45;97268.97;5034608;28;20572;-48
2024/03/27 05:26:28;;;;;;;0.30;0.20;;;;;;;7.33;98.59;97264.13;5033669;28;20227;-49
2024/03/27 05:28:55;;;;;;;0.30;0.20;;;;;;;7.22;98.65;97266.59;5033922;28;20542;-48
2024/03/27 05:31:21;;;;;;;0.30;0.20;;;;;;;7.31;98.79;97275.72;5034357;28;20479;-48
2024/03/27 05:33:46;;;;;;;0.30;0.20;;;;;;;7.27;99.26;97277.72;5033651;28;20695;-49
2024/03/27 05:36:12;;;;;;;0.30;0.20;;;;;;;7.41;98.77;97284.78;5033704;28;20456;-48
2024/03/27 05:38:38;;;;;;;0.30;0.20;;;;;;;7.46;98.55;97281.81;5033451;28;20599;-50
2024/03/27 05:41:04;;;;;;;0.30;0.20;;;;;;;7.57;99.75;97279.34;5034284;28;20521;-48
2024/03/27 05:43:29;;;;;;;0.30;0.20;;;;;;;7.60;98.43;97277.34;5033721;28;20346;-49
2024/03/27 05:45:55;;;;;;;0.30;0.20;;;;;;;7.73;97.42;97282.69;5033126;28;20220;-49
2024/03/27 05:48:20;;;;;;;0.30;0.10;;;;;;;7.71;98.01;97287.22;5010663;28;20236;-48
2024/03/27 05:50:46;;;;;;;0.30;0.20;;;;;;;7.62;96.84;97287.81;5002328;28;20665;-58
2024/03/27 05:53:11;;;;;;;0.30;0.20;;;;;;;7.72;97.15;97284.47;5027258;28;20213;-49
2024/03/27 05:55:38;;;;;;;0.30;0.20;;;;;;;8.26;95.36;97291.47;5023167;28;20296;-48
2024/03/27 05:58:03;;;;;;;0.30;0.20;;;;;;;7.82;97.45;97287.38;5027041;28;20221;-49
2024/03/27 06:00:29;;;;;;;0.30;0.20;;;;;;;7.85;98.44;97287.16;5033267;28;20471;-48
2024/03/27 06:02:55;;;;;;;0.30;0.20;;;;;;;7.86;97.74;97277.44;5033428;28;20475;-49
2024/03/27 06:05:20;;;;;;;0.30;0.20;;;;;;;7.69;98.20;97279.38;5033982;28;20221;-49
2024/03/27 06:07:46;;;;;;;0.30;0.20;;;;;;;7.85;98.28;97273.09;5033367;28;20260;-50
2024/03/27 06:10:12;;;;;;;0.30;0.20;;;;;;;7.94;97.47;97262.72;5032569;28;20416;-49
2024/03/27 06:12:38;;;;;;;0.30;0.20;;;;;;;8.03;97.38;97267.41;5032626;28;20252;-49
2024/03/27 06:15:04;;;;;;;0.30;0.20;;;;;;;7.90;98.23;97244.53;5032995;28;20593;-50
2024/03/27 06:17:30;;;;;;;0.30;0.20;;;;;;;7.96;98.13;97238.84;5020226;28;20222;-48
2024/03/27 06:19:56;;;;;;;0.30;0.20;;;;;;;8.10;97.54;97245.84;5033255;28;20466;-49
2024/03/27 06:22:21;;;;;;;0.30;0.20;;;;;;;8.14;97.41;97247.34;5032372;28;20275;-49
2024/03/27 06:24:47;;;;;;;0.30;0.20;;;;;;;8.13;97.80;97248.28;5031476;28;20472;-49
2024/03/27 06:27:12;;;;;;;0.30;0.20;;;;;;;8.18;96.42;97232.94;5031891;28;20225;-50
2024/03/27 06:29:38;;;;;;;0.30;0.20;;;;;;;8.29;96.25;97233.06;5031464;28;20288;-49
2024/03/27 06:32:03;;;;;;;0.30;0.20;;;;;;;8.45;95.40;97239.00;5031751;28;20241;-49
2024/03/27 06:34:29;;;;;;;0.30;0.20;;;;;;;8.52;94.28;97236.81;5031617;28;20217;-49
2024/03/27 06:36:55;;;;;;;0.30;0.20;;;;;;;8.47;94.92;97241.56;5031762;28;20812;-49
2024/03/27 06:39:21;;;;;;;0.30;0.20;;;;;;;8.55;95.61;97239.22;5016061;28;20213;-49
2024/03/27 06:41:47;;;;;;;0.30;0.20;;;;;;;8.44;95.59;97239.97;5032347;28;20256;-50
2024/03/27 06:44:15;;;;;;;0.30;0.20;;;;;;;8.56;94.84;97230.34;5032297;28;21046;-50
2024/03/27 06:46:40;;;;;;;0.30;0.20;;;;;;;8.51;94.77;97235.97;5026428;28;20226;-49
2024/03/27 06:49:18;;;;;;;0.30;0.20;;;;;;;8.63;95.61;97228.09;5032537;28;20565;-49
2024/03/27 06:51:50;;;;;;;0.30;0.20;;;;;;;8.68;94.85;97239.22;5017384;28;20535;-49
2024/03/27 06:54:16;;;;;;;0.30;0.20;;;;;;;8.72;94.51;97246.84;5032648;28;20456;-48
2024/03/27 06:56:43;;;;;;;0.30;0.20;;;;;;;8.66;94.17;97243.78;5017119;28;20490;-50
2024/03/27 06:59:08;;;;;;;0.30;0.20;;;;;;;8.65;93.54;97248.25;5036119;28;20279;-49
2024/03/27 07:01:33;;;;;;;0.30;0.20;;;;;;;8.74;93.66;97241.44;5035174;28;20996;-50
2024/03/27 07:03:59;;;;;;;0.30;0.20;;;;;;;8.86;93.37;97235.28;5035614;28;20217;-49
2024/03/27 07:06:25;;;;;;;0.30;0.20;;;;;;;8.85;93.56;97233.59;5035825;28;20300;-49
2024/03/27 07:08:50;;;;;;;0.30;0.20;;;;;;;8.84;93.31;97231.88;5035560;28;20740;-50
2024/03/27 07:11:16;;;;;;;0.30;0.20;;;;;;;8.89;93.76;97229.75;5019075;28;20244;-49
2024/03/27 07:13:41;;;;;;;0.30;0.20;;;;;;;8.98;94.22;97245.00;5035787;28;20221;-50
2024/03/27 07:16:07;;;;;;;0.30;0.20;;;;;;;8.90;95.21;97247.34;5033946;28;20574;-49
2024/03/27 07:18:34;;;;;;;0.30;0.20;;;;;;;9.03;95.14;97244.66;5025342;28;20219;-49
2024/03/27 07:20:59;;;;;;;0.30;0.20;;;;;;;9.08;94.52;97245.19;5035508;28;20241;-50
2024/03/27 07:23:27;;;;;;;0.30;0.20;;;;;;;9.14;94.27;97240.28;5035280;28;20460;-50
2024/03/27 07:25:53;;;;;;;0.30;0.20;;;;;;;9.19;93.16;97232.03;5035444;28;20586;-49
2024/03/27 07:28:19;;;;;;;0.30;0.20;;;;;;;9.33;92.80;97228.38;5034913;28;21018;-50
2024/03/27 07:30:51;;;;;;;0.30;0.20;;;;;;;9.37;92.64;97227.19;5034649;28;20463;-50
2024/03/27 07:33:17;;;;;;;0.30;0.20;;;;;;;9.39;92.83;97212.84;5035255;28;20275;-50
2024/03/27 07:35:43;;;;;;;0.30;0.20;;;;;;;9.43;92.70;97227.56;5033833;28;20890;-50
2024/03/27 07:38:09;;;;;;;0.30;0.20;;;;;;;9.45;92.59;97222.16;5034657;28;20551;-50
2024/03/27 07:40:34;;;;;;;0.30;0.20;;;;;;;9.36;92.38;97225.50;5034608;28;20227;-50
2024/03/27 07:43:00;;;;;;;0.30;0.20;;;;;;;9.49;92.40;97221.84;5034662;28;20233;-50
2024/03/27 07:45:25;;;;;;;0.30;0.20;;;;;;;9.47;92.17;97223.75;5034030;28;20217;-49
2024/03/27 07:47:52;;;;;;;0.30;0.20;;;;;;;9.50;91.81;97230.63;5027693;28;20275;-49
2024/03/27 07:50:18;;;;;;;0.30;0.20;;;;;;;9.55;92.08;97224.97;5029603;28;20236;-50
2024/03/27 07:52:44;;;;;;;0.30;0.20;;;;;;;9.61;92.06;97224.56;5024634;28;20480;-50
2024/03/27 07:55:09;;;;;;;0.30;0.20;;;;;;;9.85;91.88;97222.69;5027419;28;20510;-50
2024/03/27 07:57:35;;;;;;;0.30;0.20;;;;;;;9.68;90.96;97226.63;5023729;28;20248;-50
2024/03/27 08:00:03;;;;;;;0.30;0.20;;;;;;;9.71;90.88;97230.84;5033667;28;20662;-50
2024/03/27 08:02:29;;;;;;;0.30;0.20;;;;;;;9.71;90.70;97225.53;5017215;28;20271;-49
2024/03/27 08:04:55;;;;;;;0.30;0.20;;;;;;;9.77;90.10;97230.41;5033474;28;20459;-49
2024/03/27 08:07:20;;;;;;;0.30;0.20;;;;;;;9.85;89.78;97238.63;5033322;28;20565;-49
2024/03/27 08:09:52;;;;;;;0.30;0.20;;;;;;;9.88;90.05;97241.06;5032626;28;20520;-49
2024/03/27 08:12:18;;;;;;;0.30;0.20;;;;;;;9.82;90.07;97245.97;5033376;28;20253;-49
2024/03/27 08:14:44;;;;;;;0.30;0.20;;;;;;;9.82;90.55;97238.84;5033246;28;20829;-49
2024/03/27 08:17:10;;;;;;;0.30;0.20;;;;;;;9.92;90.66;97234.56;5023242;28;20221;-50
2024/03/27 08:19:40;;;;;;;0.30;0.20;;;;;;;9.85;91.05;97253.69;5030366;28;20513;-49
2024/03/27 08:22:09;;;;;;;0.30;0.20;;;;;;;9.93;90.71;97244.22;5016703;28;20244;-49
2024/03/27 08:24:35;;;;;;;0.30;0.20;;;;;;;10.01;90.40;97243.66;5032891;28;20459;-49
2024/03/27 08:27:05;;;;;;;0.30;0.20;;;;;;;9.89;90.19;97253.38;5032938;28;20487;-49
2024/03/27 08:29:31;;;;;;;0.30;0.20;;;;;;;9.84;91.13;97262.59;5032819;28;20487;-49
2024/03/27 08:31:58;;;;;;;0.30;0.20;;;;;;;9.73;91.50;97256.31;5033115;28;21000;-48
2024/03/27 08:34:23;;;;;;;1.23;1.23;;;;;;;9.68;91.37;97260.25;5034174;28;20460;-49
2024/03/27 08:36:49;;;;;;;0.30;0.20;;;;;;;9.63;93.78;97263.25;5034464;28;20468;-49
2024/03/27 08:39:15;;;;;;;0.30;0.20;;;;;;;9.96;92.88;97257.22;5033557;28;20220;-50
2024/03/27 08:41:41;;;;;;;0.30;0.20;;;;;;;9.94;92.52;97271.59;5033162;28;20702;-49
2024/03/27 08:44:07;;;;;;;0.30;0.20;;;;;;;9.83;91.63;97279.47;5017014;28;20999;-49
2024/03/27 08:46:33;;;;;;;0.30;0.20;;;;;;;9.80;91.87;97280.56;5028421;28;20460;-49
2024/03/27 08:48:59;;;;;;;0.30;0.20;;;;;;;10.06;90.56;97273.31;5032712;28;20546;-49
2024/03/27 08:51:26;;;;;;;0.30;0.20;;;;;;;9.96;91.05;97277.63;5019217;28;20472;-49
2024/03/27 08:53:52;;;;;;;0.30;0.20;;;;;;;9.96;90.53;97283.78;5032729;28;20225;-50
2024/03/27 08:56:19;;;;;;;0.30;0.20;;;;;;;9.96;90.15;97290.88;5018217;28;20531;-49
2024/03/27 08:58:45;;;;;;;0.30;0.20;;;;;;;10.12;89.83;97287.94;5033118;28;20513;-49
2024/03/27 09:01:17;;;;;;;0.30;0.20;;;;;;;10.19;88.74;97284.72;5033201;28;20480;-49
2024/03/27 09:03:43;;;;;;;0.30;0.20;;;;;;;10.21;88.30;97280.16;5032708;28;20530;-49
2024/03/27 09:06:09;;;;;;;0.30;0.20;;;;;;;10.53;88.33;97283.00;5032272;28;20467;-49
2024/03/27 09:08:36;;;;;;;0.30;0.20;;;;;;;10.51;87.85;97284.94;5032228;28;20240;-49
2024/03/27 09:11:02;;;;;;;0.30;0.20;;;;;;;10.61;87.66;97293.06;5031819;28;20480;-49
2024/03/27 09:13:28;;;;;;;0.30;0.20;;;;;;;11.05;87.13;97294.91;5032173;28;20471;-49
2024/03/27 09:15:58;;;;;;;0.30;0.20;;;;;;;10.95;86.90;97291.25;5032061;28;20471;-48
2024/03/27 09:18:27;;;;;;;0.30;0.20;;;;;;;10.97;86.91;97292.88;5008293;28;20216;-49
2024/03/27 09:21:00;;;;;;;0.30;0.20;;;;;;;11.09;85.49;97295.50;5031025;28;20462;-50
2024/03/27 09:23:26;;;;;;;0.30;0.20;;;;;;;11.33;85.27;97293.56;5032120;28;20460;-49
2024/03/27 09:25:53;;;;;;;0.30;0.20;;;;;;;11.60;83.64;97290.50;5031848;28;20490;-49
2024/03/27 09:28:19;;;;;;;0.40;0.40;;;;;;;11.64;84.06;97296.41;5015357;28;20456;-49
2024/03/27 09:30:45;;;;;;;0.30;0.20;;;;;;;11.77;83.72;97292.63;5031709;28;20456;-49
2024/03/27 09:33:11;;;;;;;0.30;0.20;;;;;;;11.81;83.06;97296.78;5031578;28;20566;-49
2024/03/27 09:35:36;;;;;;;0.30;0.20;;;;;;;11.69;83.96;97289.75;5031478;28;20306;-49
2024/03/27 09:38:02;;;;;;;0.30;0.20;;;;;;;11.83;84.01;97286.00;5031595;28;20224;-48
2024/03/27 09:40:28;;;;;;;0.40;0.33;;;;;;;11.78;84.02;97281.00;5031633;28;20216;-48
2024/03/27 09:42:55;;;;;;;0.30;0.20;;;;;;;11.85;84.83;97284.91;5031437;28;20484;-50
2024/03/27 09:45:23;;;;;;;0.30;0.20;;;;;;;12.24;84.49;97284.41;5031248;28;20658;-49
2024/03/27 09:47:48;;;;;;;0.30;0.20;;;;;;;12.42;82.46;97285.50;5024574;28;20467;-49
2024/03/27 09:50:14;;;;;;;0.30;0.20;;;;;;;12.23;82.54;97282.72;5026917;28;20488;-49
2024/03/27 09:52:40;;;;;;;0.30;0.20;;;;;;;12.43;83.22;97277.38;5021157;28;20236;-49
2024/03/27 09:55:10;;;;;;;0.30;0.20;;;;;;;12.76;81.66;97278.16;5025599;28;20698;-49
2024/03/27 09:57:36;;;;;;;0.30;0.20;;;;;;;12.33;82.70;97280.94;5021467;28;20829;-48
2024/03/27 10:00:02;;;;;;;0.30;0.20;;;;;;;12.58;83.39;97280.56;5031281;28;20459;-49
2024/03/27 10:02:28;;;;;;;0.30;0.20;;;;;;;12.66;82.59;97275.44;5031676;28;20240;-49
2024/03/27 10:04:54;;;;;;;0.30;0.20;;;;;;;12.75;81.79;97279.16;5031155;28;20482;-49
2024/03/27 10:07:22;;;;;;;0.30;0.20;;;;;;;12.69;81.83;97288.50;5031396;28;20743;-49
2024/03/27 10:09:48;;;;;;;0.30;0.20;;;;;;;12.44;83.06;97295.06;5030800;28;20557;-49
2024/03/27 10:12:13;;;;;;;0.30;0.20;;;;;;;12.66;83.17;97294.09;5030800;28;20582;-49
2024/03/27 10:14:39;;;;;;;0.30;0.20;;;;;;;13.07;82.22;97292.34;5031096;28;20253;-48
2024/03/27 10:17:05;;;;;;;0.30;0.20;;;;;;;13.28;81.22;97290.50;5030905;28;20300;-48
2024/03/27 10:19:31;;;;;;;0.30;0.20;;;;;;;13.12;81.38;97303.44;5030914;28;20213;-49
2024/03/27 10:21:56;;;;;;;0.30;0.20;;;;;;;13.13;82.78;97302.47;5031062;28;20498;-49
2024/03/27 10:24:22;;;;;;;0.30;0.20;;;;;;;13.53;82.17;97299.84;5031019;28;20224;-49
2024/03/27 10:26:48;;;;;;;0.30;0.20;;;;;;;13.33;82.22;97314.13;5031145;28;20217;-48
2024/03/27 10:29:14;;;;;;;0.30;0.20;;;;;;;13.55;82.27;97319.22;5030706;28;20283;-49
2024/03/27 10:31:39;;;;;;;0.30;0.20;;;;;;;13.74;81.96;97320.28;5031581;28;20319;-49
2024/03/27 10:34:08;;;;;;;0.30;0.20;;;;;;;13.74;82.35;97334.47;5034856;28;20495;-49
2024/03/27 10:36:35;;;;;;;0.30;0.20;;;;;;;13.82;82.37;97339.97;5019095;28;20660;-49
2024/03/27 10:39:04;;;;;;;0.30;0.20;;;;;;;13.75;81.86;97330.81;5021859;28;20487;-49
2024/03/27 10:41:30;;;;;;;0.30;0.20;;;;;;;13.89;81.57;97319.75;5035014;28;20479;-49
2024/03/27 10:43:56;;;;;;;0.30;0.20;;;;;;;13.78;80.34;97332.38;5034791;28;20494;-48
2024/03/27 10:46:24;;;;;;;0.30;0.20;;;;;;;13.73;80.47;97332.78;5031477;28;20584;-49
2024/03/27 10:48:51;;;;;;;0.30;0.20;;;;;;;14.09;79.25;97336.66;5031247;28;20853;-49
2024/03/27 10:51:19;;;;;;;0.30;0.20;;;;;;;14.08;79.52;97332.28;5022153;28;20469;-49
2024/03/27 10:53:46;;;;;;;0.30;0.20;;;;;;;14.17;78.85;97336.81;5033012;28;20835;-49
2024/03/27 10:56:12;;;;;;;0.30;0.20;;;;;;;13.86;79.29;97346.75;5020381;28;20460;-49
2024/03/27 10:58:38;;;;;;;0.30;0.20;;;;;;;13.77;79.56;97347.53;5032949;28;20460;-49
2024/03/27 11:01:05;;;;;;;0.30;0.20;;;;;;;13.98;78.85;97346.59;5034349;28;20541;-49
2024/03/27 11:03:30;;;;;;;0.30;0.20;;;;;;;13.86;78.76;97346.75;5034527;28;20455;-49
2024/03/27 11:06:00;;;;;;;0.30;0.20;;;;;;;14.00;77.78;97340.16;5034739;28;20533;-49
2024/03/27 11:08:26;;;;;;;0.30;0.20;;;;;;;14.04;77.90;97354.91;5034433;28;20225;-49
2024/03/27 11:13:25;;;;;;;0.30;0.20;;;;;;;14.14;76.72;97354.94;5007894;28;20975;-49
2024/03/27 11:15:54;;;;;;;0.30;0.20;;;;;;;14.26;77.01;97353.84;5018036;28;20495;-50
2024/03/27 11:18:19;;;;;;;0.30;0.20;;;;;;;14.37;75.56;97359.03;4988533;28;20662;-49
2024/03/27 11:20:55;;;;;;;0.30;0.20;;;;;;;14.41;75.24;97368.47;5017943;28;20470;-50
2024/03/27 11:23:30;;;;;;;0.30;0.20;;;;;;;14.12;76.30;97368.44;4974450;28;20221;-51
2024/03/27 11:25:57;;;;;;;0.30;0.20;;;;;;;14.24;75.86;97366.47;4998083;28;20456;-50
2024/03/27 11:28:22;;;;;;;1.43;0.67;;;;;;;14.39;74.99;97373.13;4998113;28;20472;-51
2024/03/27 11:30:48;;;;;;;0.30;0.20;;;;;;;14.40;74.36;97360.59;4997799;28;20832;-50
2024/03/27 11:33:15;;;;;;;0.30;0.20;;;;;;;14.15;75.69;97372.66;4998366;28;20248;-51
2024/03/27 11:35:41;;;;;;;0.30;0.20;;;;;;;14.39;74.82;97378.47;4998166;28;20225;-50
2024/03/27 11:38:07;;;;;;;0.30;0.20;;;;;;;14.46;75.25;97376.94;4998399;28;20467;-50